sensor_id;sensor_type;location;lat;lon;timestamp;P1;durP1;ratioP1;P2;durP2;ratioP2
79348;SDS011;68817;48.110;11.660;2023-08-01T00:01:41;3.42;;;1.73;;
79348;SDS011;68817;48.110;11.660;2023-08-01T00:04:07;2.97;;;1.75;;
79348;SDS011;68817;48.110;11.660;2023-08-01T00:06:32;2.38;;;1.70;;
79348;SDS011;68817;48.110;11.660;2023-08-01T00:08:58;2.90;;;1.88;;
79348;SDS011;68817;48.110;11.660;2023-08-01T00:11:23;2.97;;;2.00;;
79348;SDS011;68817;48.110;11.660;2023-08-01T00:13:48;3.33;;;1.83;;
79348;SDS011;68817;48.110;11.660;2023-08-01T00:16:14;4.25;;;1.95;;
79348;SDS011;68817;48.110;11.660;2023-08-01T00:18:39;3.50;;;2.20;;
79348;SDS011;68817;48.110;11.660;2023-08-01T00:21:04;3.20;;;2.00;;
79348;SDS011;68817;48.110;11.660;2023-08-01T00:23:34;3.72;;;2.17;;
79348;SDS011;68817;48.110;11.660;2023-08-01T00:25:59;5.43;;;2.10;;
79348;SDS011;68817;48.110;11.660;2023-08-01T00:28:24;3.55;;;2.10;;
79348;SDS011;68817;48.110;11.660;2023-08-01T00:31:00;4.03;;;1.85;;
79348;SDS011;68817;48.110;11.660;2023-08-01T00:33:29;3.15;;;2.00;;
79348;SDS011;68817;48.110;11.660;2023-08-01T00:35:54;3.20;;;1.73;;
79348;SDS011;68817;48.110;11.660;2023-08-01T00:38:20;3.90;;;1.98;;
79348;SDS011;68817;48.110;11.660;2023-08-01T00:40:45;2.60;;;1.70;;
79348;SDS011;68817;48.110;11.660;2023-08-01T00:43:11;3.03;;;1.73;;
79348;SDS011;68817;48.110;11.660;2023-08-01T00:45:37;2.67;;;1.90;;
79348;SDS011;68817;48.110;11.660;2023-08-01T00:48:02;3.65;;;2.22;;
79348;SDS011;68817;48.110;11.660;2023-08-01T00:50:28;3.67;;;2.05;;
79348;SDS011;68817;48.110;11.660;2023-08-01T00:52:53;4.07;;;2.05;;
79348;SDS011;68817;48.110;11.660;2023-08-01T00:55:19;3.85;;;1.98;;
79348;SDS011;68817;48.110;11.660;2023-08-01T00:57:46;3.92;;;2.28;;
79348;SDS011;68817;48.110;11.660;2023-08-01T01:00:12;2.92;;;2.17;;
79348;SDS011;68817;48.110;11.660;2023-08-01T01:02:38;5.60;;;2.00;;
79348;SDS011;68817;48.110;11.660;2023-08-01T01:05:03;3.08;;;2.13;;
79348;SDS011;68817;48.110;11.660;2023-08-01T01:07:30;3.25;;;2.08;;
79348;SDS011;68817;48.110;11.660;2023-08-01T01:09:56;5.43;;;2.40;;
79348;SDS011;68817;48.110;11.660;2023-08-01T01:12:21;3.50;;;2.17;;
79348;SDS011;68817;48.110;11.660;2023-08-01T01:14:47;3.60;;;2.30;;
79348;SDS011;68817;48.110;11.660;2023-08-01T01:17:12;2.83;;;1.90;;
79348;SDS011;68817;48.110;11.660;2023-08-01T01:19:38;4.72;;;2.50;;
79348;SDS011;68817;48.110;11.660;2023-08-01T01:22:03;3.28;;;2.03;;
79348;SDS011;68817;48.110;11.660;2023-08-01T01:24:29;5.18;;;2.40;;
79348;SDS011;68817;48.110;11.660;2023-08-01T01:26:55;5.03;;;2.25;;
79348;SDS011;68817;48.110;11.660;2023-08-01T01:29:24;4.47;;;2.10;;
79348;SDS011;68817;48.110;11.660;2023-08-01T01:31:49;3.67;;;2.03;;
79348;SDS011;68817;48.110;11.660;2023-08-01T01:34:15;3.42;;;2.30;;
79348;SDS011;68817;48.110;11.660;2023-08-01T01:36:40;4.80;;;2.28;;
79348;SDS011;68817;48.110;11.660;2023-08-01T01:39:06;4.43;;;2.20;;
79348;SDS011;68817;48.110;11.660;2023-08-01T01:41:31;3.55;;;2.40;;
79348;SDS011;68817;48.110;11.660;2023-08-01T01:43:56;4.45;;;2.30;;
79348;SDS011;68817;48.110;11.660;2023-08-01T01:46:22;4.20;;;2.42;;
79348;SDS011;68817;48.110;11.660;2023-08-01T01:48:47;3.88;;;2.13;;
79348;SDS011;68817;48.110;11.660;2023-08-01T01:51:13;3.80;;;2.08;;
79348;SDS011;68817;48.110;11.660;2023-08-01T01:53:38;4.90;;;2.35;;
79348;SDS011;68817;48.110;11.660;2023-08-01T01:56:03;3.63;;;2.10;;
79348;SDS011;68817;48.110;11.660;2023-08-01T01:58:29;5.35;;;1.98;;
79348;SDS011;68817;48.110;11.660;2023-08-01T02:00:54;4.63;;;2.38;;
79348;SDS011;68817;48.110;11.660;2023-08-01T02:03:20;3.67;;;2.53;;
79348;SDS011;68817;48.110;11.660;2023-08-01T02:05:45;3.80;;;2.10;;
79348;SDS011;68817;48.110;11.660;2023-08-01T02:08:11;4.55;;;2.03;;
79348;SDS011;68817;48.110;11.660;2023-08-01T02:10:36;4.15;;;2.05;;
79348;SDS011;68817;48.110;11.660;2023-08-01T02:13:01;4.50;;;2.10;;
79348;SDS011;68817;48.110;11.660;2023-08-01T02:15:27;2.97;;;2.00;;
79348;SDS011;68817;48.110;11.660;2023-08-01T02:17:52;3.22;;;2.20;;
79348;SDS011;68817;48.110;11.660;2023-08-01T02:20:18;4.53;;;2.45;;
79348;SDS011;68817;48.110;11.660;2023-08-01T02:22:43;3.83;;;2.22;;
79348;SDS011;68817;48.110;11.660;2023-08-01T02:25:10;4.68;;;2.40;;
79348;SDS011;68817;48.110;11.660;2023-08-01T02:27:36;3.50;;;2.15;;
79348;SDS011;68817;48.110;11.660;2023-08-01T02:30:01;4.55;;;2.53;;
79348;SDS011;68817;48.110;11.660;2023-08-01T02:32:27;4.18;;;2.40;;
79348;SDS011;68817;48.110;11.660;2023-08-01T02:34:52;4.47;;;2.22;;
79348;SDS011;68817;48.110;11.660;2023-08-01T02:37:18;3.75;;;2.17;;
79348;SDS011;68817;48.110;11.660;2023-08-01T02:39:43;4.25;;;2.35;;
79348;SDS011;68817;48.110;11.660;2023-08-01T02:42:09;3.55;;;2.30;;
79348;SDS011;68817;48.110;11.660;2023-08-01T02:44:34;4.10;;;2.25;;
79348;SDS011;68817;48.110;11.660;2023-08-01T02:46:59;4.47;;;2.47;;
79348;SDS011;68817;48.110;11.660;2023-08-01T02:49:25;4.60;;;2.70;;
79348;SDS011;68817;48.110;11.660;2023-08-01T02:51:50;4.20;;;2.42;;
79348;SDS011;68817;48.110;11.660;2023-08-01T02:54:16;5.70;;;2.55;;
79348;SDS011;68817;48.110;11.660;2023-08-01T02:56:41;3.95;;;2.38;;
79348;SDS011;68817;48.110;11.660;2023-08-01T02:59:07;3.03;;;1.73;;
79348;SDS011;68817;48.110;11.660;2023-08-01T03:01:34;3.00;;;2.10;;
79348;SDS011;68817;48.110;11.660;2023-08-01T03:04:01;4.18;;;2.15;;
79348;SDS011;68817;48.110;11.660;2023-08-01T03:06:29;3.03;;;2.10;;
79348;SDS011;68817;48.110;11.660;2023-08-01T03:08:56;3.40;;;2.35;;
79348;SDS011;68817;48.110;11.660;2023-08-01T03:11:22;3.08;;;1.98;;
79348;SDS011;68817;48.110;11.660;2023-08-01T03:13:48;3.28;;;2.00;;
79348;SDS011;68817;48.110;11.660;2023-08-01T03:16:13;3.47;;;2.40;;
79348;SDS011;68817;48.110;11.660;2023-08-01T03:18:38;3.80;;;2.30;;
79348;SDS011;68817;48.110;11.660;2023-08-01T03:21:04;4.95;;;2.20;;
79348;SDS011;68817;48.110;11.660;2023-08-01T03:23:29;4.00;;;2.20;;
79348;SDS011;68817;48.110;11.660;2023-08-01T03:25:55;5.22;;;2.50;;
79348;SDS011;68817;48.110;11.660;2023-08-01T03:28:20;4.18;;;2.72;;
79348;SDS011;68817;48.110;11.660;2023-08-01T03:30:46;3.65;;;2.20;;
79348;SDS011;68817;48.110;11.660;2023-08-01T03:33:14;3.28;;;2.10;;
79348;SDS011;68817;48.110;11.660;2023-08-01T03:35:40;6.57;;;2.33;;
79348;SDS011;68817;48.110;11.660;2023-08-01T03:38:06;4.07;;;2.28;;
79348;SDS011;68817;48.110;11.660;2023-08-01T03:40:31;4.10;;;2.42;;
79348;SDS011;68817;48.110;11.660;2023-08-01T03:42:56;3.45;;;2.10;;
79348;SDS011;68817;48.110;11.660;2023-08-01T03:45:22;4.20;;;1.95;;
79348;SDS011;68817;48.110;11.660;2023-08-01T03:47:48;3.97;;;2.35;;
79348;SDS011;68817;48.110;11.660;2023-08-01T03:50:13;5.35;;;2.50;;
79348;SDS011;68817;48.110;11.660;2023-08-01T03:52:39;4.43;;;2.40;;
79348;SDS011;68817;48.110;11.660;2023-08-01T03:55:07;4.60;;;2.45;;
79348;SDS011;68817;48.110;11.660;2023-08-01T03:57:34;4.65;;;2.30;;
79348;SDS011;68817;48.110;11.660;2023-08-01T04:00:01;3.38;;;2.25;;
79348;SDS011;68817;48.110;11.660;2023-08-01T04:02:37;3.13;;;2.00;;
79348;SDS011;68817;48.110;11.660;2023-08-01T04:05:03;4.30;;;2.42;;
79348;SDS011;68817;48.110;11.660;2023-08-01T04:07:28;3.70;;;2.40;;
79348;SDS011;68817;48.110;11.660;2023-08-01T04:09:54;3.42;;;2.13;;
79348;SDS011;68817;48.110;11.660;2023-08-01T04:12:19;3.10;;;2.10;;
79348;SDS011;68817;48.110;11.660;2023-08-01T04:14:45;3.72;;;1.98;;
79348;SDS011;68817;48.110;11.660;2023-08-01T04:17:10;4.75;;;2.80;;
79348;SDS011;68817;48.110;11.660;2023-08-01T04:19:36;3.88;;;2.50;;
79348;SDS011;68817;48.110;11.660;2023-08-01T04:22:01;4.50;;;2.67;;
79348;SDS011;68817;48.110;11.660;2023-08-01T04:24:27;5.10;;;2.50;;
79348;SDS011;68817;48.110;11.660;2023-08-01T04:26:54;5.25;;;2.50;;
79348;SDS011;68817;48.110;11.660;2023-08-01T04:29:20;4.50;;;2.45;;
79348;SDS011;68817;48.110;11.660;2023-08-01T04:31:45;5.07;;;2.72;;
79348;SDS011;68817;48.110;11.660;2023-08-01T04:34:10;3.97;;;2.33;;
79348;SDS011;68817;48.110;11.660;2023-08-01T04:36:36;4.43;;;2.40;;
79348;SDS011;68817;48.110;11.660;2023-08-01T04:39:01;3.33;;;2.15;;
79348;SDS011;68817;48.110;11.660;2023-08-01T04:41:27;4.88;;;2.50;;
79348;SDS011;68817;48.110;11.660;2023-08-01T04:43:53;6.00;;;2.65;;
79348;SDS011;68817;48.110;11.660;2023-08-01T04:46:18;3.97;;;2.53;;
79348;SDS011;68817;48.110;11.660;2023-08-01T04:48:43;4.43;;;2.50;;
79348;SDS011;68817;48.110;11.660;2023-08-01T04:51:09;4.90;;;2.80;;
79348;SDS011;68817;48.110;11.660;2023-08-01T04:53:34;4.45;;;2.65;;
79348;SDS011;68817;48.110;11.660;2023-08-01T04:56:00;4.10;;;2.55;;
79348;SDS011;68817;48.110;11.660;2023-08-01T04:58:25;6.30;;;3.00;;
79348;SDS011;68817;48.110;11.660;2023-08-01T05:00:50;4.65;;;2.83;;
79348;SDS011;68817;48.110;11.660;2023-08-01T05:03:16;5.50;;;2.83;;
79348;SDS011;68817;48.110;11.660;2023-08-01T05:05:41;5.20;;;2.78;;
79348;SDS011;68817;48.110;11.660;2023-08-01T05:08:07;5.63;;;2.83;;
79348;SDS011;68817;48.110;11.660;2023-08-01T05:10:32;5.90;;;2.97;;
79348;SDS011;68817;48.110;11.660;2023-08-01T05:12:57;4.65;;;3.17;;
79348;SDS011;68817;48.110;11.660;2023-08-01T05:15:23;5.28;;;3.25;;
79348;SDS011;68817;48.110;11.660;2023-08-01T05:17:48;6.30;;;3.20;;
79348;SDS011;68817;48.110;11.660;2023-08-01T05:20:14;5.53;;;3.17;;
79348;SDS011;68817;48.110;11.660;2023-08-01T05:22:39;5.80;;;3.20;;
79348;SDS011;68817;48.110;11.660;2023-08-01T05:25:04;4.60;;;2.83;;
79348;SDS011;68817;48.110;11.660;2023-08-01T05:27:30;5.25;;;3.25;;
79348;SDS011;68817;48.110;11.660;2023-08-01T05:29:56;6.00;;;3.25;;
79348;SDS011;68817;48.110;11.660;2023-08-01T05:32:21;6.07;;;3.05;;
79348;SDS011;68817;48.110;11.660;2023-08-01T05:34:46;4.82;;;2.97;;
79348;SDS011;68817;48.110;11.660;2023-08-01T05:37:12;7.97;;;3.22;;
79348;SDS011;68817;48.110;11.660;2023-08-01T05:39:37;5.68;;;2.97;;
79348;SDS011;68817;48.110;11.660;2023-08-01T05:42:02;4.40;;;2.80;;
79348;SDS011;68817;48.110;11.660;2023-08-01T05:44:33;5.18;;;2.70;;
79348;SDS011;68817;48.110;11.660;2023-08-01T05:46:59;5.40;;;2.78;;
79348;SDS011;68817;48.110;11.660;2023-08-01T05:49:24;4.90;;;2.85;;
79348;SDS011;68817;48.110;11.660;2023-08-01T05:51:49;5.38;;;2.70;;
79348;SDS011;68817;48.110;11.660;2023-08-01T05:54:15;6.03;;;3.60;;
79348;SDS011;68817;48.110;11.660;2023-08-01T05:56:40;5.20;;;2.72;;
79348;SDS011;68817;48.110;11.660;2023-08-01T05:59:06;5.22;;;2.90;;
79348;SDS011;68817;48.110;11.660;2023-08-01T06:01:31;8.25;;;3.03;;
79348;SDS011;68817;48.110;11.660;2023-08-01T06:03:56;5.97;;;3.00;;
79348;SDS011;68817;48.110;11.660;2023-08-01T06:06:22;7.40;;;3.38;;
79348;SDS011;68817;48.110;11.660;2023-08-01T06:08:47;6.95;;;3.00;;
79348;SDS011;68817;48.110;11.660;2023-08-01T06:11:13;4.72;;;2.90;;
79348;SDS011;68817;48.110;11.660;2023-08-01T06:13:38;5.22;;;2.90;;
79348;SDS011;68817;48.110;11.660;2023-08-01T06:16:03;6.65;;;2.72;;
79348;SDS011;68817;48.110;11.660;2023-08-01T06:18:29;4.80;;;3.00;;
79348;SDS011;68817;48.110;11.660;2023-08-01T06:20:54;8.50;;;2.95;;
79348;SDS011;68817;48.110;11.660;2023-08-01T06:23:20;8.27;;;3.28;;
79348;SDS011;68817;48.110;11.660;2023-08-01T06:25:45;4.32;;;2.67;;
79348;SDS011;68817;48.110;11.660;2023-08-01T06:28:10;6.07;;;2.60;;
79348;SDS011;68817;48.110;11.660;2023-08-01T06:30:36;5.53;;;2.65;;
79348;SDS011;68817;48.110;11.660;2023-08-01T06:33:02;4.10;;;2.35;;
79348;SDS011;68817;48.110;11.660;2023-08-01T06:35:27;7.47;;;2.58;;
79348;SDS011;68817;48.110;11.660;2023-08-01T06:37:52;5.63;;;3.08;;
79348;SDS011;68817;48.110;11.660;2023-08-01T06:40:18;4.88;;;2.60;;
79348;SDS011;68817;48.110;11.660;2023-08-01T06:42:43;4.55;;;2.80;;
79348;SDS011;68817;48.110;11.660;2023-08-01T06:45:09;6.43;;;2.72;;
79348;SDS011;68817;48.110;11.660;2023-08-01T06:47:34;4.30;;;2.47;;
79348;SDS011;68817;48.110;11.660;2023-08-01T06:49:59;5.22;;;2.65;;
79348;SDS011;68817;48.110;11.660;2023-08-01T06:52:25;6.82;;;2.97;;
79348;SDS011;68817;48.110;11.660;2023-08-01T06:54:50;5.95;;;2.70;;
79348;SDS011;68817;48.110;11.660;2023-08-01T06:57:16;5.05;;;2.78;;
79348;SDS011;68817;48.110;11.660;2023-08-01T06:59:41;4.95;;;2.75;;
79348;SDS011;68817;48.110;11.660;2023-08-01T07:02:06;6.57;;;2.35;;
79348;SDS011;68817;48.110;11.660;2023-08-01T07:04:33;4.25;;;2.25;;
79348;SDS011;68817;48.110;11.660;2023-08-01T07:06:59;4.40;;;2.38;;
79348;SDS011;68817;48.110;11.660;2023-08-01T07:09:25;6.25;;;2.78;;
79348;SDS011;68817;48.110;11.660;2023-08-01T07:11:50;4.70;;;2.45;;
79348;SDS011;68817;48.110;11.660;2023-08-01T07:14:15;4.60;;;2.45;;
79348;SDS011;68817;48.110;11.660;2023-08-01T07:16:41;5.70;;;2.70;;
79348;SDS011;68817;48.110;11.660;2023-08-01T07:19:06;5.78;;;2.42;;
79348;SDS011;68817;48.110;11.660;2023-08-01T07:21:32;5.75;;;2.50;;
79348;SDS011;68817;48.110;11.660;2023-08-01T07:23:57;4.15;;;2.50;;
79348;SDS011;68817;48.110;11.660;2023-08-01T07:26:23;4.35;;;2.45;;
79348;SDS011;68817;48.110;11.660;2023-08-01T07:28:48;3.63;;;2.70;;
79348;SDS011;68817;48.110;11.660;2023-08-01T07:31:14;4.68;;;2.47;;
79348;SDS011;68817;48.110;11.660;2023-08-01T07:33:39;3.88;;;2.63;;
79348;SDS011;68817;48.110;11.660;2023-08-01T07:36:04;3.78;;;2.40;;
79348;SDS011;68817;48.110;11.660;2023-08-01T07:38:30;4.03;;;2.30;;
79348;SDS011;68817;48.110;11.660;2023-08-01T07:40:57;3.50;;;2.17;;
79348;SDS011;68817;48.110;11.660;2023-08-01T07:43:22;5.28;;;2.25;;
79348;SDS011;68817;48.110;11.660;2023-08-01T07:45:48;4.50;;;2.47;;
79348;SDS011;68817;48.110;11.660;2023-08-01T07:48:15;4.90;;;2.63;;
79348;SDS011;68817;48.110;11.660;2023-08-01T07:50:41;3.83;;;2.25;;
79348;SDS011;68817;48.110;11.660;2023-08-01T07:53:06;3.75;;;2.35;;
79348;SDS011;68817;48.110;11.660;2023-08-01T07:55:35;4.72;;;2.40;;
79348;SDS011;68817;48.110;11.660;2023-08-01T07:58:00;4.38;;;2.38;;
79348;SDS011;68817;48.110;11.660;2023-08-01T08:00:26;3.20;;;2.10;;
79348;SDS011;68817;48.110;11.660;2023-08-01T08:02:53;3.17;;;2.22;;
79348;SDS011;68817;48.110;11.660;2023-08-01T08:05:18;5.00;;;2.38;;
79348;SDS011;68817;48.110;11.660;2023-08-01T08:07:43;4.20;;;1.95;;
79348;SDS011;68817;48.110;11.660;2023-08-01T08:10:09;5.13;;;2.42;;
79348;SDS011;68817;48.110;11.660;2023-08-01T08:12:34;6.10;;;2.53;;
79348;SDS011;68817;48.110;11.660;2023-08-01T08:15:00;4.05;;;2.55;;
79348;SDS011;68817;48.110;11.660;2023-08-01T08:17:25;6.22;;;2.40;;
79348;SDS011;68817;48.110;11.660;2023-08-01T08:19:50;3.92;;;2.38;;
79348;SDS011;68817;48.110;11.660;2023-08-01T08:22:16;5.32;;;3.17;;
79348;SDS011;68817;48.110;11.660;2023-08-01T08:24:41;3.53;;;2.30;;
79348;SDS011;68817;48.110;11.660;2023-08-01T08:27:06;3.78;;;2.42;;
79348;SDS011;68817;48.110;11.660;2023-08-01T08:29:32;3.58;;;2.35;;
79348;SDS011;68817;48.110;11.660;2023-08-01T08:31:58;5.18;;;2.50;;
79348;SDS011;68817;48.110;11.660;2023-08-01T08:34:23;3.90;;;2.50;;
79348;SDS011;68817;48.110;11.660;2023-08-01T08:36:49;2.95;;;2.03;;
79348;SDS011;68817;48.110;11.660;2023-08-01T08:39:15;3.40;;;2.15;;
79348;SDS011;68817;48.110;11.660;2023-08-01T08:41:51;4.28;;;2.35;;
79348;SDS011;68817;48.110;11.660;2023-08-01T08:44:17;5.97;;;2.70;;
79348;SDS011;68817;48.110;11.660;2023-08-01T08:46:46;4.55;;;2.55;;
79348;SDS011;68817;48.110;11.660;2023-08-01T08:49:15;3.72;;;2.20;;
79348;SDS011;68817;48.110;11.660;2023-08-01T08:51:41;5.07;;;2.50;;
79348;SDS011;68817;48.110;11.660;2023-08-01T08:54:07;5.53;;;2.65;;
79348;SDS011;68817;48.110;11.660;2023-08-01T08:56:33;4.55;;;2.80;;
79348;SDS011;68817;48.110;11.660;2023-08-01T08:58:59;4.70;;;2.50;;
79348;SDS011;68817;48.110;11.660;2023-08-01T09:01:24;7.07;;;2.92;;
79348;SDS011;68817;48.110;11.660;2023-08-01T09:03:50;5.13;;;2.63;;
79348;SDS011;68817;48.110;11.660;2023-08-01T09:06:17;3.47;;;2.40;;
79348;SDS011;68817;48.110;11.660;2023-08-01T09:08:46;6.22;;;2.72;;
79348;SDS011;68817;48.110;11.660;2023-08-01T09:11:20;4.22;;;2.28;;
79348;SDS011;68817;48.110;11.660;2023-08-01T09:13:46;5.13;;;2.53;;
79348;SDS011;68817;48.110;11.660;2023-08-01T09:16:12;3.70;;;2.25;;
79348;SDS011;68817;48.110;11.660;2023-08-01T09:18:51;4.50;;;2.83;;
79348;SDS011;68817;48.110;11.660;2023-08-01T09:21:20;6.68;;;2.67;;
79348;SDS011;68817;48.110;11.660;2023-08-01T09:23:45;5.57;;;2.58;;
79348;SDS011;68817;48.110;11.660;2023-08-01T09:26:17;4.25;;;2.63;;
79348;SDS011;68817;48.110;11.660;2023-08-01T09:28:54;4.20;;;2.58;;
79348;SDS011;68817;48.110;11.660;2023-08-01T09:31:25;4.55;;;2.65;;
79348;SDS011;68817;48.110;11.660;2023-08-01T09:33:53;4.03;;;2.72;;
79348;SDS011;68817;48.110;11.660;2023-08-01T09:36:22;3.65;;;2.60;;
79348;SDS011;68817;48.110;11.660;2023-08-01T09:38:49;5.32;;;2.90;;
79348;SDS011;68817;48.110;11.660;2023-08-01T09:41:17;4.10;;;2.70;;
79348;SDS011;68817;48.110;11.660;2023-08-01T09:43:44;3.75;;;2.60;;
79348;SDS011;68817;48.110;11.660;2023-08-01T09:46:11;6.93;;;2.78;;
79348;SDS011;68817;48.110;11.660;2023-08-01T09:48:36;6.82;;;2.85;;
79348;SDS011;68817;48.110;11.660;2023-08-01T09:51:09;4.70;;;3.38;;
79348;SDS011;68817;48.110;11.660;2023-08-01T09:53:46;5.53;;;2.70;;
79348;SDS011;68817;48.110;11.660;2023-08-01T09:56:20;4.80;;;2.47;;
79348;SDS011;68817;48.110;11.660;2023-08-01T09:58:50;4.65;;;2.70;;
79348;SDS011;68817;48.110;11.660;2023-08-01T10:01:17;4.28;;;2.88;;
79348;SDS011;68817;48.110;11.660;2023-08-01T10:03:45;4.65;;;2.40;;
79348;SDS011;68817;48.110;11.660;2023-08-01T10:06:19;4.90;;;2.40;;
79348;SDS011;68817;48.110;11.660;2023-08-01T10:08:46;5.97;;;3.33;;
79348;SDS011;68817;48.110;11.660;2023-08-01T10:11:14;4.47;;;2.40;;
79348;SDS011;68817;48.110;11.660;2023-08-01T10:13:42;7.53;;;2.95;;
79348;SDS011;68817;48.110;11.660;2023-08-01T10:16:09;5.70;;;2.35;;
79348;SDS011;68817;48.110;11.660;2023-08-01T10:18:36;5.15;;;2.45;;
79348;SDS011;68817;48.110;11.660;2023-08-01T10:21:03;5.28;;;2.45;;
79348;SDS011;68817;48.110;11.660;2023-08-01T10:23:33;3.63;;;2.35;;
79348;SDS011;68817;48.110;11.660;2023-08-01T10:25:59;4.85;;;2.40;;
79348;SDS011;68817;48.110;11.660;2023-08-01T10:28:34;3.67;;;2.17;;
79348;SDS011;68817;48.110;11.660;2023-08-01T10:31:15;5.15;;;2.45;;
79348;SDS011;68817;48.110;11.660;2023-08-01T10:33:41;4.57;;;2.60;;
79348;SDS011;68817;48.110;11.660;2023-08-01T10:36:15;3.90;;;2.45;;
79348;SDS011;68817;48.110;11.660;2023-08-01T10:38:47;4.88;;;2.75;;
79348;SDS011;68817;48.110;11.660;2023-08-01T10:41:20;4.07;;;2.63;;
79348;SDS011;68817;48.110;11.660;2023-08-01T10:43:52;4.53;;;2.40;;
79348;SDS011;68817;48.110;11.660;2023-08-01T10:46:29;4.75;;;2.30;;
79348;SDS011;68817;48.110;11.660;2023-08-01T10:48:54;3.85;;;2.42;;
79348;SDS011;68817;48.110;11.660;2023-08-01T10:51:19;3.78;;;2.38;;
79348;SDS011;68817;48.110;11.660;2023-08-01T10:53:45;4.38;;;2.55;;
79348;SDS011;68817;48.110;11.660;2023-08-01T10:56:17;4.97;;;2.50;;
79348;SDS011;68817;48.110;11.660;2023-08-01T10:58:43;6.82;;;2.30;;
79348;SDS011;68817;48.110;11.660;2023-08-01T11:01:09;5.93;;;2.60;;
79348;SDS011;68817;48.110;11.660;2023-08-01T11:03:35;5.32;;;3.00;;
79348;SDS011;68817;48.110;11.660;2023-08-01T11:06:02;5.57;;;2.60;;
79348;SDS011;68817;48.110;11.660;2023-08-01T11:08:35;4.60;;;2.45;;
79348;SDS011;68817;48.110;11.660;2023-08-01T11:11:08;5.55;;;2.33;;
79348;SDS011;68817;48.110;11.660;2023-08-01T11:13:36;3.47;;;1.98;;
79348;SDS011;68817;48.110;11.660;2023-08-01T11:16:02;6.03;;;2.20;;
79348;SDS011;68817;48.110;11.660;2023-08-01T11:18:28;3.05;;;1.90;;
79348;SDS011;68817;48.110;11.660;2023-08-01T11:20:54;3.95;;;1.70;;
79348;SDS011;68817;48.110;11.660;2023-08-01T11:23:27;4.72;;;1.80;;
79348;SDS011;68817;48.110;11.660;2023-08-01T11:25:53;3.10;;;1.52;;
79348;SDS011;68817;48.110;11.660;2023-08-01T11:28:19;3.42;;;1.70;;
79348;SDS011;68817;48.110;11.660;2023-08-01T11:30:45;4.05;;;1.80;;
79348;SDS011;68817;48.110;11.660;2023-08-01T11:35:45;2.33;;;1.38;;
79348;SDS011;68817;48.110;11.660;2023-08-01T11:38:11;2.75;;;1.50;;
79348;SDS011;68817;48.110;11.660;2023-08-01T11:40:37;5.05;;;1.50;;
79348;SDS011;68817;48.110;11.660;2023-08-01T11:43:02;3.28;;;1.48;;
79348;SDS011;68817;48.110;11.660;2023-08-01T11:45:28;3.83;;;1.38;;
79348;SDS011;68817;48.110;11.660;2023-08-01T11:47:53;3.45;;;1.80;;
79348;SDS011;68817;48.110;11.660;2023-08-01T11:50:22;2.72;;;1.60;;
79348;SDS011;68817;48.110;11.660;2023-08-01T11:52:49;2.85;;;1.80;;
79348;SDS011;68817;48.110;11.660;2023-08-01T11:55:18;2.75;;;1.65;;
79348;SDS011;68817;48.110;11.660;2023-08-01T11:58:03;3.90;;;1.83;;
79348;SDS011;68817;48.110;11.660;2023-08-01T12:00:29;3.85;;;1.67;;
79348;SDS011;68817;48.110;11.660;2023-08-01T12:03:05;2.95;;;1.90;;
79348;SDS011;68817;48.110;11.660;2023-08-01T12:05:31;3.22;;;2.13;;
79348;SDS011;68817;48.110;11.660;2023-08-01T12:08:07;3.35;;;2.00;;
79348;SDS011;68817;48.110;11.660;2023-08-01T12:10:37;4.20;;;1.83;;
79348;SDS011;68817;48.110;11.660;2023-08-01T12:13:03;3.15;;;2.00;;
79348;SDS011;68817;48.110;11.660;2023-08-01T12:15:28;3.60;;;1.77;;
79348;SDS011;68817;48.110;11.660;2023-08-01T12:17:53;3.85;;;1.95;;
79348;SDS011;68817;48.110;11.660;2023-08-01T12:20:19;3.47;;;1.83;;
79348;SDS011;68817;48.110;11.660;2023-08-01T12:22:44;4.22;;;1.90;;
79348;SDS011;68817;48.110;11.660;2023-08-01T12:25:10;2.65;;;1.60;;
79348;SDS011;68817;48.110;11.660;2023-08-01T12:27:35;3.30;;;1.65;;
79348;SDS011;68817;48.110;11.660;2023-08-01T12:30:00;3.75;;;1.90;;
79348;SDS011;68817;48.110;11.660;2023-08-01T12:32:26;2.97;;;1.70;;
79348;SDS011;68817;48.110;11.660;2023-08-01T12:34:51;3.38;;;1.80;;
79348;SDS011;68817;48.110;11.660;2023-08-01T12:37:16;3.55;;;2.10;;
79348;SDS011;68817;48.110;11.660;2023-08-01T12:39:42;2.28;;;1.52;;
79348;SDS011;68817;48.110;11.660;2023-08-01T12:42:07;4.10;;;1.52;;
79348;SDS011;68817;48.110;11.660;2023-08-01T12:44:33;3.10;;;1.60;;
79348;SDS011;68817;48.110;11.660;2023-08-01T12:46:58;2.85;;;1.80;;
79348;SDS011;68817;48.110;11.660;2023-08-01T12:49:24;3.42;;;1.67;;
79348;SDS011;68817;48.110;11.660;2023-08-01T12:51:49;2.90;;;1.88;;
79348;SDS011;68817;48.110;11.660;2023-08-01T12:54:14;4.15;;;1.63;;
79348;SDS011;68817;48.110;11.660;2023-08-01T12:56:40;3.13;;;1.65;;
79348;SDS011;68817;48.110;11.660;2023-08-01T12:59:05;2.47;;;1.50;;
79348;SDS011;68817;48.110;11.660;2023-08-01T13:01:31;4.43;;;1.52;;
79348;SDS011;68817;48.110;11.660;2023-08-01T13:03:56;2.92;;;1.60;;
79348;SDS011;68817;48.110;11.660;2023-08-01T13:06:21;2.63;;;1.50;;
79348;SDS011;68817;48.110;11.660;2023-08-01T13:08:47;2.72;;;1.40;;
79348;SDS011;68817;48.110;11.660;2023-08-01T13:11:13;2.78;;;1.33;;
79348;SDS011;68817;48.110;11.660;2023-08-01T13:13:41;2.60;;;1.40;;
79348;SDS011;68817;48.110;11.660;2023-08-01T13:16:07;4.93;;;1.60;;
79348;SDS011;68817;48.110;11.660;2023-08-01T13:18:32;5.85;;;1.50;;
79348;SDS011;68817;48.110;11.660;2023-08-01T13:20:58;2.10;;;1.20;;
79348;SDS011;68817;48.110;11.660;2023-08-01T13:23:24;3.88;;;1.83;;
79348;SDS011;68817;48.110;11.660;2023-08-01T13:25:50;2.33;;;1.50;;
79348;SDS011;68817;48.110;11.660;2023-08-01T13:28:16;4.35;;;1.73;;
79348;SDS011;68817;48.110;11.660;2023-08-01T13:30:41;2.03;;;1.50;;
79348;SDS011;68817;48.110;11.660;2023-08-01T13:33:06;2.50;;;1.75;;
79348;SDS011;68817;48.110;11.660;2023-08-01T13:35:32;5.40;;;1.50;;
79348;SDS011;68817;48.110;11.660;2023-08-01T13:37:57;2.90;;;1.50;;
79348;SDS011;68817;48.110;11.660;2023-08-01T13:40:24;3.03;;;1.70;;
79348;SDS011;68817;48.110;11.660;2023-08-01T13:42:50;3.17;;;1.90;;
79348;SDS011;68817;48.110;11.660;2023-08-01T13:45:15;4.43;;;1.77;;
79348;SDS011;68817;48.110;11.660;2023-08-01T13:47:41;2.70;;;1.50;;
79348;SDS011;68817;48.110;11.660;2023-08-01T13:50:06;5.20;;;1.63;;
79348;SDS011;68817;48.110;11.660;2023-08-01T13:52:32;4.50;;;1.60;;
79348;SDS011;68817;48.110;11.660;2023-08-01T13:54:57;4.25;;;1.55;;
79348;SDS011;68817;48.110;11.660;2023-08-01T13:57:22;3.03;;;1.60;;
79348;SDS011;68817;48.110;11.660;2023-08-01T13:59:49;2.72;;;1.60;;
79348;SDS011;68817;48.110;11.660;2023-08-01T14:02:14;3.53;;;1.83;;
79348;SDS011;68817;48.110;11.660;2023-08-01T14:04:40;4.63;;;1.73;;
79348;SDS011;68817;48.110;11.660;2023-08-01T14:07:05;3.60;;;1.70;;
79348;SDS011;68817;48.110;11.660;2023-08-01T14:09:31;2.50;;;1.40;;
79348;SDS011;68817;48.110;11.660;2023-08-01T14:11:57;2.85;;;1.85;;
79348;SDS011;68817;48.110;11.660;2023-08-01T14:14:23;5.00;;;1.90;;
79348;SDS011;68817;48.110;11.660;2023-08-01T14:16:48;3.50;;;1.67;;
79348;SDS011;68817;48.110;11.660;2023-08-01T14:19:14;2.97;;;1.60;;
79348;SDS011;68817;48.110;11.660;2023-08-01T14:21:39;4.53;;;1.80;;
79348;SDS011;68817;48.110;11.660;2023-08-01T14:24:05;2.83;;;1.38;;
79348;SDS011;68817;48.110;11.660;2023-08-01T14:26:30;2.83;;;1.70;;
79348;SDS011;68817;48.110;11.660;2023-08-01T14:28:55;2.75;;;1.60;;
79348;SDS011;68817;48.110;11.660;2023-08-01T14:31:21;3.83;;;1.67;;